Time;durP1;ratioP1;P1;durP2;ratioP2;P2;SDS_P1;SDS_P2;PMS_P1;PMS_P2;Temp;Humidity;BMP_temperature;BMP_pressure;BME280_temperature;BME280_humidity;BME280_pressure;Samples;Min_cycle;Max_cycle;Signal;HPM_P1;HPM_P2
2022/09/12 00:01:21;;;;;;;17.55;15.20;;;;;;;12.49;100.00;101644.09;5096891;28;20467;-80
2022/09/12 00:03:49;;;;;;;17.02;15.27;;;;;;;12.45;100.00;101645.25;5088028;28;20024;-73
2022/09/12 00:06:24;;;;;;;17.42;15.35;;;;;;;12.41;100.00;101639.34;5088824;28;20853;-73
2022/09/12 00:09:01;;;;;;;17.27;15.52;;;;;;;12.45;100.00;101634.69;5106906;28;20026;-73
2022/09/12 00:11:27;;;;;;;17.63;15.80;;;;;;;12.43;100.00;101629.53;5108891;28;20027;-73
2022/09/12 00:13:58;;;;;;;17.55;15.73;;;;;;;12.39;100.00;101635.94;5108855;28;20015;-75
2022/09/12 00:16:25;;;;;;;17.02;15.25;;;;;;;12.35;100.00;101626.56;5108567;28;20133;-73
2022/09/12 00:18:52;;;;;;;22.60;15.82;;;;;;;12.38;100.00;101628.97;5108287;28;20028;-74
2022/09/12 00:21:19;;;;;;;19.88;16.23;;;;;;;12.37;100.00;101624.66;5106698;28;20040;-74
2022/09/12 00:23:45;;;;;;;19.13;16.95;;;;;;;12.35;100.00;101623.91;5105069;28;20058;-73
2022/09/12 00:26:11;;;;;;;18.85;16.88;;;;;;;12.33;100.00;101625.81;5111371;28;20031;-74
2022/09/12 00:28:38;;;;;;;19.00;17.10;;;;;;;12.34;100.00;101626.66;5110883;28;20020;-74
2022/09/12 00:31:06;;;;;;;18.48;16.70;;;;;;;12.30;100.00;101630.47;5111158;28;20031;-74
2022/09/12 00:33:31;;;;;;;20.88;18.52;;;;;;;12.23;100.00;101619.47;5111636;28;20034;-75
2022/09/12 00:35:57;;;;;;;19.35;17.20;;;;;;;12.25;100.00;101620.22;5110759;28;20394;-75
2022/09/12 00:38:22;;;;;;;19.00;17.08;;;;;;;12.20;100.00;101620.53;5111570;28;20031;-76
2022/09/12 00:40:48;;;;;;;20.92;18.23;;;;;;;12.17;100.00;101612.00;5101027;28;20063;-75
2022/09/12 00:43:36;;;;;;;19.95;17.38;;;;;;;12.20;100.00;101615.25;5098962;28;20111;-75
2022/09/12 00:46:10;;;;;;;18.77;16.73;;;;;;;12.13;100.00;101613.16;5089364;28;20028;-75
2022/09/12 00:48:45;;;;;;;19.00;17.10;;;;;;;12.14;100.00;101606.94;5090142;28;20024;-81
2022/09/12 00:51:12;;;;;;;18.80;16.83;;;;;;;12.08;100.00;101613.47;5089893;28;20020;-75
2022/09/12 00:53:40;;;;;;;18.33;16.48;;;;;;;12.12;100.00;101612.31;5091399;28;20031;-75
2022/09/12 00:56:06;;;;;;;18.73;16.75;;;;;;;12.07;100.00;101618.84;5091236;28;20033;-75
2022/09/12 00:58:38;;;;;;;18.60;16.70;;;;;;;12.01;100.00;101604.28;5091704;28;20523;-74
2022/09/12 01:01:05;;;;;;;19.13;17.10;;;;;;;12.02;100.00;101605.13;5099147;28;20027;-73
2022/09/12 01:03:30;;;;;;;18.60;16.73;;;;;;;12.01;100.00;101600.78;5110116;28;20133;-73
2022/09/12 01:06:07;;;;;;;19.08;17.17;;;;;;;11.99;100.00;101594.75;5097764;28;20103;-73
2022/09/12 01:08:36;;;;;;;19.20;16.88;;;;;;;11.92;100.00;101595.19;5107619;28;20401;-74
2022/09/12 01:11:02;;;;;;;20.02;17.92;;;;;;;11.96;100.00;101587.91;5110155;28;20109;-74
2022/09/12 01:13:27;;;;;;;20.80;18.52;;;;;;;11.97;100.00;101583.47;5110730;28;20478;-74
2022/09/12 01:15:54;;;;;;;20.23;18.13;;;;;;;11.93;100.00;101583.69;5112262;28;20426;-74
2022/09/12 01:18:34;;;;;;;19.00;17.05;;;;;;;11.95;100.00;101580.09;5110186;28;20035;-80
2022/09/12 01:21:10;;;;;;;18.98;17.08;;;;;;;11.90;100.00;101578.63;5112102;28;20487;-80
2022/09/12 01:24:00;;;;;;;21.45;16.60;;;;;;;11.86;100.00;101584.22;5111527;28;20032;-80
2022/09/12 01:27:03;;;;;;;23.00;20.58;;;;;;;11.96;100.00;101577.34;5111906;28;20051;-80
2022/09/12 01:29:46;;;;;;;27.63;24.77;;;;;;;12.00;100.00;101570.06;5111851;28;20057;-80
2022/09/12 01:32:42;;;;;;;22.25;19.33;;;;;;;11.93;100.00;101581.06;5108144;28;20400;-73
2022/09/12 01:35:24;;;;;;;20.63;18.58;;;;;;;11.88;100.00;101582.31;5109502;28;20382;-74
2022/09/12 01:38:02;;;;;;;22.30;19.97;;;;;;;11.82;100.00;101573.03;5110515;28;20096;-74
2022/09/12 01:40:39;;;;;;;26.10;21.10;;;;;;;11.82;100.00;101573.03;5110404;28;20020;-80
2022/09/12 01:43:30;;;;;;;22.65;20.25;;;;;;;11.83;100.00;101581.78;5111268;28;20071;-81
2022/09/12 01:46:37;;;;;;;22.20;19.65;;;;;;;11.89;100.00;101586.63;5112877;27;20027;-80
2022/09/12 01:49:29;;;;;;;22.13;19.70;;;;;;;11.85;100.00;101580.72;5085443;28;20446;-81
2022/09/12 01:52:01;;;;;;;22.73;20.42;;;;;;;11.78;100.00;101575.97;5111181;28;20034;-81
2022/09/12 01:54:36;;;;;;;21.92;19.63;;;;;;;11.79;100.00;101572.41;5111276;28;20028;-80
2022/09/12 01:57:12;;;;;;;22.17;19.73;;;;;;;11.71;100.00;101567.59;5116350;28;20028;-81
2022/09/12 01:59:47;;;;;;;22.63;19.92;;;;;;;11.75;100.00;101561.19;5103051;28;20443;-74
2022/09/12 02:02:32;;;;;;;21.27;19.15;;;;;;;11.74;100.00;101556.84;5112476;28;20023;-74
2022/09/12 02:05:09;;;;;;;23.17;20.73;;;;;;;11.73;100.00;101547.25;5114896;28;20031;-74
2022/09/12 02:07:43;;;;;;;23.00;20.60;;;;;;;11.71;100.00;101559.69;5114398;28;20024;-74
2022/09/12 02:10:16;;;;;;;22.55;19.17;;;;;;;11.69;100.00;101540.50;5115077;28;20111;-73
2022/09/12 02:12:52;;;;;;;21.08;18.88;;;;;;;11.66;100.00;101545.16;5117435;28;20024;-73
2022/09/12 02:15:22;;;;;;;21.70;18.90;;;;;;;11.63;100.00;101538.28;5108978;28;20091;-73
2022/09/12 02:17:49;;;;;;;20.92;18.77;;;;;;;11.60;100.00;101543.75;5118326;28;20023;-73
2022/09/12 02:20:33;;;;;;;22.38;20.08;;;;;;;11.58;100.00;101543.00;5119366;28;20036;-73
2022/09/12 02:22:59;;;;;;;22.30;19.45;;;;;;;11.58;100.00;101545.63;5115928;28;20077;-73
2022/09/12 02:25:28;;;;;;;20.30;18.30;;;;;;;11.52;100.00;101544.25;5110015;28;20026;-73
2022/09/12 02:28:26;;;;;;;22.40;20.00;;;;;;;11.59;100.00;101553.44;5107444;28;20028;-73
2022/09/12 02:31:09;;;;;;;21.13;18.73;;;;;;;11.56;100.00;101550.16;5108941;28;20372;-73
2022/09/12 02:34:02;;;;;;;22.35;19.00;;;;;;;11.50;100.00;101556.69;5106093;28;20061;-73
2022/09/12 02:36:36;;;;;;;23.48;19.50;;;;;;;11.48;100.00;101547.19;5106620;28;20399;-73
2022/09/12 02:39:02;;;;;;;20.23;18.15;;;;;;;11.46;100.00;101549.09;5109086;28;20026;-73
2022/09/12 02:41:27;;;;;;;20.90;18.75;;;;;;;11.48;100.00;101553.31;5107294;28;20027;-73
2022/09/12 02:43:53;;;;;;;19.17;17.17;;;;;;;11.43;100.00;101544.88;5094656;28;20048;-73
2022/09/12 02:46:35;;;;;;;22.95;19.10;;;;;;;11.46;100.00;101544.66;5106760;28;20122;-73
2022/09/12 02:49:01;;;;;;;24.02;20.58;;;;;;;11.45;100.00;101536.88;5100351;28;20066;-73
2022/09/12 02:51:26;;;;;;;22.10;19.85;;;;;;;11.45;100.00;101531.59;5107606;28;20058;-74
2022/09/12 02:53:52;;;;;;;20.83;18.38;;;;;;;11.42;100.00;101537.91;5101468;28;20115;-73
2022/09/12 02:56:24;;;;;;;20.95;18.63;;;;;;;11.41;100.00;101532.75;5095351;28;20035;-74
2022/09/12 02:58:50;;;;;;;21.30;18.85;;;;;;;11.39;100.00;101526.75;5109190;28;20019;-73
2022/09/12 03:01:21;;;;;;;20.38;18.35;;;;;;;11.37;100.00;101526.84;5109200;28;20019;-80
2022/09/12 03:04:12;;;;;;;20.67;18.35;;;;;;;11.35;100.00;101526.09;5109289;28;20035;-79
2022/09/12 03:06:56;;;;;;;23.30;19.60;;;;;;;11.41;100.00;101530.13;5109788;28;20121;-79
2022/09/12 03:09:36;;;;;;;21.45;19.25;;;;;;;11.36;100.00;101519.88;5110249;28;20019;-79
2022/09/12 03:12:17;;;;;;;21.45;19.25;;;;;;;11.39;100.00;101518.84;5108769;28;20020;-79
2022/09/12 03:15:00;;;;;;;22.98;20.63;;;;;;;11.38;100.00;101522.41;5109883;28;20032;-79
2022/09/12 03:17:46;;;;;;;23.73;21.33;;;;;;;11.38;100.00;101522.41;5109212;28;20030;-79
2022/09/12 03:20:20;;;;;;;25.60;21.90;;;;;;;11.35;100.00;101520.00;5109162;28;20383;-79
2022/09/12 03:23:09;;;;;;;23.75;21.33;;;;;;;11.39;100.00;101519.69;5109961;28;20680;-79
2022/09/12 03:25:41;;;;;;;26.08;20.73;;;;;;;11.33;100.00;101508.72;5107976;28;20015;-73
2022/09/12 03:28:14;;;;;;;25.48;21.25;;;;;;;11.33;100.00;101516.63;5108066;28;20027;-73
2022/09/12 03:30:45;;;;;;;23.98;21.40;;;;;;;11.30;100.00;101507.97;5106728;28;20028;-73
2022/09/12 03:33:16;;;;;;;25.05;21.58;;;;;;;11.30;100.00;101512.41;5107954;28;20027;-73
2022/09/12 03:35:41;;;;;;;23.02;20.55;;;;;;;11.30;100.00;101513.25;5108561;28;20027;-73
2022/09/12 03:38:07;;;;;;;23.13;20.63;;;;;;;11.30;100.00;101513.25;5107858;28;20035;-73
2022/09/12 03:40:33;;;;;;;23.48;20.13;;;;;;;11.26;100.00;101511.75;5106734;28;20023;-73
2022/09/12 03:42:59;;;;;;;22.85;20.40;;;;;;;11.25;100.00;101504.81;5106772;28;20130;-73
2022/09/12 03:45:24;;;;;;;21.90;19.63;;;;;;;11.25;100.00;101510.06;5107705;28;20039;-74
2022/09/12 03:47:50;;;;;;;23.00;20.52;;;;;;;11.27;100.00;101513.44;5108225;28;20027;-74
2022/09/12 03:50:15;;;;;;;22.88;20.48;;;;;;;11.30;100.00;101510.59;5091610;28;20032;-74
2022/09/12 03:52:40;;;;;;;23.75;20.02;;;;;;;11.33;100.00;101503.44;5093196;28;20073;-74
2022/09/12 03:55:06;;;;;;;22.58;20.23;;;;;;;11.26;100.00;101497.75;5108276;28;20680;-74
2022/09/12 03:57:31;;;;;;;23.42;21.05;;;;;;;11.27;100.00;101502.06;5110476;28;20027;-74
2022/09/12 03:59:57;;;;;;;23.52;21.00;;;;;;;11.27;100.00;101500.28;5110319;28;20027;-74
2022/09/12 04:02:22;;;;;;;24.70;20.40;;;;;;;11.25;100.00;101494.25;5110800;28;20072;-73
2022/09/12 04:04:47;;;;;;;25.60;21.73;;;;;;;11.24;100.00;101489.09;5106203;28;20051;-73
2022/09/12 04:07:13;;;;;;;28.08;21.77;;;;;;;11.27;100.00;101492.38;5110977;27;20046;-74
2022/09/12 04:09:39;;;;;;;24.77;21.55;;;;;;;11.26;100.00;101489.84;5113488;28;20062;-74
2022/09/12 04:12:04;;;;;;;26.52;22.98;;;;;;;11.26;100.00;101485.41;5113227;28;20031;-74
2022/09/12 04:14:30;;;;;;;26.17;21.30;;;;;;;11.26;100.00;101487.19;5111117;28;20179;-74
2022/09/12 04:16:56;;;;;;;25.85;21.50;;;;;;;11.28;100.00;101490.56;5113958;28;20027;-80
2022/09/12 04:19:22;;;;;;;24.65;22.00;;;;;;;11.23;100.00;101480.34;5114174;28;20035;-73
2022/09/12 04:21:47;;;;;;;26.10;22.65;;;;;;;11.23;100.00;101475.09;5106249;28;20024;-80
2022/09/12 04:24:13;;;;;;;23.95;21.02;;;;;;;11.28;100.00;101475.63;5113640;28;20030;-74
2022/09/12 04:26:38;;;;;;;24.35;21.80;;;;;;;11.25;100.00;101478.47;5113182;28;20145;-74
2022/09/12 04:29:03;;;;;;;24.58;22.08;;;;;;;11.28;100.00;101475.63;5112409;28;20158;-74
2022/09/12 04:31:29;;;;;;;25.13;22.25;;;;;;;11.34;100.00;101465.59;5112857;28;20028;-74
2022/09/12 04:33:59;;;;;;;25.35;21.83;;;;;;;11.31;100.00;101471.94;5113065;27;20165;-74
2022/09/12 04:36:26;;;;;;;27.80;23.80;;;;;;;11.33;100.00;101472.66;5111323;28;20068;-80
2022/09/12 04:38:52;;;;;;;25.70;22.92;;;;;;;11.30;100.00;101471.09;5108177;28;20111;-73
2022/09/12 04:41:19;;;;;;;25.13;22.52;;;;;;;11.36;100.00;101466.34;5110330;28;20122;-73
2022/09/12 04:43:46;;;;;;;28.50;24.23;;;;;;;11.36;100.00;101468.97;5112489;28;20044;-73
2022/09/12 04:46:14;;;;;;;28.70;25.25;;;;;;;11.39;100.00;101466.13;5110361;28;20393;-73
2022/09/12 04:48:40;;;;;;;28.85;25.75;;;;;;;11.36;100.00;101461.06;5110627;28;20053;-74
2022/09/12 04:51:11;;;;;;;31.80;25.15;;;;;;;11.38;100.00;101470.56;5110787;28;20053;-74
2022/09/12 04:53:37;;;;;;;31.13;26.92;;;;;;;11.38;100.00;101473.19;5102776;28;20027;-74
2022/09/12 04:56:08;;;;;;;31.05;26.35;;;;;;;11.37;100.00;101473.31;5112176;28;20152;-80
2022/09/12 04:58:34;;;;;;;30.67;27.35;;;;;;;11.37;100.00;101468.88;5110286;28;20038;-74
2022/09/12 05:01:08;;;;;;;31.67;27.60;;;;;;;11.40;100.00;101465.19;5104259;28;20026;-74
2022/09/12 05:03:34;;;;;;;34.00;28.75;;;;;;;11.42;100.00;101463.28;5108886;28;20035;-74
2022/09/12 05:06:05;;;;;;;34.28;28.40;;;;;;;11.41;100.00;101472.16;5109480;28;20483;-73
2022/09/12 05:08:31;;;;;;;34.85;27.92;;;;;;;11.41;100.00;101474.78;5108315;28;20030;-74
2022/09/12 05:11:02;;;;;;;34.13;28.33;;;;;;;11.41;100.00;101473.00;5109901;28;20027;-74
2022/09/12 05:13:28;;;;;;;33.83;28.48;;;;;;;11.44;100.00;101471.94;5111024;28;20040;-74
2022/09/12 05:15:54;;;;;;;36.63;29.50;;;;;;;11.46;100.00;101470.88;5109880;28;20066;-74
2022/09/12 05:18:20;;;;;;;34.70;28.45;;;;;;;11.48;100.00;101478.69;5103061;28;20042;-74
2022/09/12 05:20:45;;;;;;;33.72;28.25;;;;;;;11.49;100.00;101475.09;5111023;27;20103;-74
2022/09/12 05:23:11;;;;;;;36.60;28.70;;;;;;;11.51;100.00;101473.22;5108789;28;20019;-74
2022/09/12 05:25:36;;;;;;;36.38;29.60;;;;;;;11.51;100.00;101473.22;5108996;28;20027;-74
2022/09/12 05:28:01;;;;;;;34.75;28.95;;;;;;;11.51;100.00;101479.31;5110790;28;20076;-74
2022/09/12 05:30:27;;;;;;;36.45;28.77;;;;;;;11.53;100.00;101477.44;5108180;28;20027;-74
2022/09/12 05:32:52;;;;;;;36.15;30.08;;;;;;;11.54;100.00;101473.00;5110994;28;20030;-74
2022/09/12 05:35:17;;;;;;;36.42;28.92;;;;;;;11.55;100.00;101469.41;5103281;28;20188;-74
2022/09/12 05:37:43;;;;;;;35.65;28.50;;;;;;;11.58;100.00;101470.03;5110300;28;20506;-74
2022/09/12 05:40:08;;;;;;;36.53;27.65;;;;;;;11.59;100.00;101476.16;5110270;28;20104;-74
2022/09/12 05:42:35;;;;;;;35.17;29.08;;;;;;;11.60;100.00;101475.22;5110341;28;20123;-81
2022/09/12 05:45:00;;;;;;;34.35;28.63;;;;;;;11.65;100.00;101475.78;5110920;28;20075;-80
2022/09/12 05:47:26;;;;;;;35.65;28.73;;;;;;;11.65;100.00;101475.78;5113377;28;20035;-80
2022/09/12 05:49:51;;;;;;;35.20;29.08;;;;;;;11.68;100.00;101477.34;5116680;28;20027;-80
2022/09/12 05:52:17;;;;;;;35.33;28.05;;;;;;;11.72;100.00;101482.31;5107518;28;20039;-80
2022/09/12 05:54:42;;;;;;;38.28;28.77;;;;;;;11.77;100.00;101487.25;5132162;28;20023;-81
2022/09/12 05:57:08;;;;;;;34.42;28.52;;;;;;;11.76;100.00;101483.78;5122284;28;20016;-75
2022/09/12 05:59:33;;;;;;;35.10;28.15;;;;;;;11.81;100.00;101475.56;5094006;28;20031;-73
2022/09/12 06:01:59;;;;;;;37.45;30.05;;;;;;;11.81;100.00;101484.34;5119873;28;20029;-80
2022/09/12 06:04:25;;;;;;;36.65;29.73;;;;;;;11.85;100.00;101495.50;5128878;28;20051;-74
2022/09/12 06:06:50;;;;;;;33.95;28.65;;;;;;;11.89;100.00;101496.97;5107503;28;20360;-74
2022/09/12 06:09:16;;;;;;;38.00;29.10;;;;;;;11.92;100.00;101494.97;5109499;28;20031;-74
2022/09/12 06:11:44;;;;;;;37.45;30.50;;;;;;;11.96;100.00;101489.47;5111641;28;20467;-73
2022/09/12 06:14:14;;;;;;;46.13;34.47;;;;;;;12.03;100.00;101498.69;5109977;28;20015;-73
2022/09/12 06:16:39;;;;;;;47.22;35.35;;;;;;;12.05;100.00;101494.16;5112086;27;20015;-73
2022/09/12 06:19:16;;;;;;;45.13;33.30;;;;;;;12.07;100.00;101502.78;5109024;28;20502;-73
2022/09/12 06:21:42;;;;;;;44.63;33.92;;;;;;;12.14;100.00;101493.50;5109706;28;20038;-73
2022/09/12 06:24:08;;;;;;;42.05;34.15;;;;;;;12.12;100.00;101487.47;5101223;28;20099;-73
2022/09/12 06:26:34;;;;;;;44.97;34.92;;;;;;;12.19;100.00;101484.31;5109117;28;20047;-73
2022/09/12 06:29:00;;;;;;;46.45;34.78;;;;;;;12.16;100.00;101481.88;5107753;28;20023;-73
2022/09/12 06:31:29;;;;;;;44.58;34.97;;;;;;;12.22;100.00;101481.44;5102872;28;20020;-73
2022/09/12 06:33:58;;;;;;;41.38;33.97;;;;;;;12.24;100.00;101478.69;5106310;28;20047;-73
2022/09/12 06:36:27;;;;;;;45.05;35.05;;;;;;;12.30;100.00;101480.91;5102725;28;20100;-73
2022/09/12 06:39:02;;;;;;;45.38;35.53;;;;;;;12.34;100.00;101478.88;5106974;28;20024;-74
2022/09/12 06:41:29;;;;;;;42.65;33.90;;;;;;;12.39;100.00;101480.22;5108261;28;20023;-74
2022/09/12 06:43:59;;;;;;;43.33;34.05;;;;;;;12.46;100.00;101484.16;5109563;28;20043;-73
2022/09/12 06:46:25;;;;;;;40.75;33.13;;;;;;;12.54;100.00;101481.78;5100329;28;20020;-73
2022/09/12 06:48:51;;;;;;;42.17;34.15;;;;;;;12.69;100.00;101484.28;5109807;28;20373;-73
2022/09/12 06:51:18;;;;;;;42.88;33.10;;;;;;;12.78;100.00;101480.94;5113202;28;20495;-75
2022/09/12 06:53:46;;;;;;;43.10;32.08;;;;;;;12.83;100.00;101470.91;5115115;28;20034;-73
2022/09/12 06:56:14;;;;;;;39.75;31.48;;;;;;;12.89;100.00;101478.41;5107094;28;20095;-73
2022/09/12 06:58:40;;;;;;;43.90;31.77;;;;;;;12.99;100.00;101476.75;5116937;28;20030;-74
2022/09/12 07:01:14;;;;;;;37.28;30.88;;;;;;;13.02;100.00;101476.53;5117742;28;20019;-74
2022/09/12 07:03:40;;;;;;;39.85;30.95;;;;;;;13.06;100.00;101472.69;5102582;28;20028;-74
2022/09/12 07:06:11;;;;;;;35.63;29.67;;;;;;;13.13;100.00;101478.34;5119845;28;20392;-73
2022/09/12 07:08:38;;;;;;;35.22;30.00;;;;;;;13.18;100.00;101477.09;5119474;28;20074;-74
2022/09/12 07:11:17;;;;;;;35.97;29.35;;;;;;;13.25;100.00;101477.50;5117500;28;20023;-74
2022/09/12 07:13:44;;;;;;;37.28;30.85;;;;;;;13.38;100.00;101477.41;5117239;28;20111;-74
2022/09/12 07:16:10;;;;;;;35.13;30.27;;;;;;;13.57;100.00;101480.31;5119998;28;20038;-75
2022/09/12 07:18:37;;;;;;;37.80;30.15;;;;;;;13.69;100.00;101482.03;5123464;28;20023;-74
2022/09/12 07:21:05;;;;;;;34.47;29.10;;;;;;;13.74;100.00;101477.25;5125065;28;20020;-75
2022/09/12 07:23:31;;;;;;;32.45;28.85;;;;;;;13.91;100.00;101475.91;5119617;28;20015;-75
2022/09/12 07:25:58;;;;;;;33.67;28.92;;;;;;;14.07;100.00;101475.59;5125402;28;20042;-81
2022/09/12 07:28:26;;;;;;;32.33;28.77;;;;;;;14.32;100.00;101464.72;5119627;28;20031;-75
2022/09/12 07:30:52;;;;;;;31.67;28.25;;;;;;;14.48;100.00;101469.69;5126619;28;20158;-75
2022/09/12 07:33:23;;;;;;;32.17;27.48;;;;;;;14.64;100.00;101474.56;5130547;28;20030;-75
2022/09/12 07:35:48;;;;;;;31.38;26.25;;;;;;;14.85;100.00;101464.88;5129447;28;20023;-76
2022/09/12 07:38:14;;;;;;;29.85;26.13;;;;;;;15.04;100.00;101457.09;5134627;28;20046;-77
2022/09/12 07:40:40;;;;;;;28.35;25.17;;;;;;;15.22;100.00;101468.00;5137495;28;20039;-77
2022/09/12 07:43:05;;;;;;;27.38;23.35;;;;;;;15.36;100.00;101470.31;5138012;27;20085;-84
2022/09/12 07:45:31;;;;;;;26.80;23.63;;;;;;;15.52;100.00;101467.19;5136678;28;20064;-79
2022/09/12 07:47:56;;;;;;;25.75;22.30;;;;;;;15.70;100.00;101474.59;5129127;28;20031;-84
2022/09/12 07:50:21;;;;;;;33.38;24.13;;;;;;;15.87;100.00;101472.16;5136928;28;20079;-77
2022/09/12 07:52:47;;;;;;;26.55;22.17;;;;;;;16.01;98.66;101468.34;5133045;28;20035;-78
2022/09/12 07:55:12;;;;;;;24.05;21.08;;;;;;;16.09;99.46;101471.16;5132221;28;20105;-76
2022/09/12 07:57:38;;;;;;;22.95;20.52;;;;;;;16.44;98.74;101475.19;5133865;28;20027;-74
2022/09/12 08:00:06;;;;;;;23.77;21.05;;;;;;;16.64;97.56;101482.22;5127963;28;20122;-75
2022/09/12 08:02:31;;;;;;;23.17;20.75;;;;;;;16.62;95.36;101473.53;5132732;28;20031;-75
2022/09/12 08:04:57;;;;;;;22.67;20.00;;;;;;;16.91;95.97;101470.97;5125917;28;20060;-75
2022/09/12 08:07:22;;;;;;;22.90;20.65;;;;;;;16.95;92.93;101461.72;5131112;28;20147;-76
2022/09/12 08:09:48;;;;;;;22.55;20.25;;;;;;;17.16;92.95;101466.88;5113734;28;20020;-76
2022/09/12 08:12:14;;;;;;;22.20;19.40;;;;;;;17.29;91.82;101467.47;5115577;28;20131;-76
2022/09/12 08:14:39;;;;;;;22.90;19.95;;;;;;;17.51;90.76;101472.44;5111931;28;20103;-77
2022/09/12 08:17:05;;;;;;;22.77;19.10;;;;;;;17.71;89.73;101472.47;5112461;28;20526;-77
2022/09/12 08:19:30;;;;;;;20.10;18.08;;;;;;;17.85;90.00;101466.66;5103788;28;20024;-77
2022/09/12 08:21:59;;;;;;;20.33;18.20;;;;;;;18.01;88.22;101471.34;5112392;28;20059;-78
2022/09/12 08:24:28;;;;;;;20.58;18.48;;;;;;;18.12;88.57;101476.50;5105408;28;20040;-77
2022/09/12 08:26:53;;;;;;;20.42;17.55;;;;;;;18.36;88.97;101478.63;5111842;28;20028;-77
2022/09/12 08:29:18;;;;;;;20.00;18.02;;;;;;;18.53;86.17;101483.16;5112313;28;20071;-77
2022/09/12 08:31:45;;;;;;;18.95;17.05;;;;;;;18.82;85.79;101491.03;5111539;28;20076;-77
2022/09/12 08:34:10;;;;;;;20.98;18.27;;;;;;;18.85;84.39;101484.53;5112175;28;20032;-77
2022/09/12 08:36:35;;;;;;;22.83;18.20;;;;;;;18.94;83.29;101483.63;5111026;28;20448;-76
2022/09/12 08:39:05;;;;;;;19.15;17.02;;;;;;;19.11;83.60;101482.78;5112302;28;20431;-77
2022/09/12 08:41:36;;;;;;;19.17;16.95;;;;;;;19.29;83.61;101480.94;5111490;28;20077;-77
2022/09/12 08:44:16;;;;;;;19.98;17.63;;;;;;;19.46;82.39;101481.06;5110841;28;20044;-76
2022/09/12 08:47:00;;;;;;;18.75;16.73;;;;;;;19.78;81.50;101483.97;5113554;28;20165;-77
2022/09/12 08:49:33;;;;;;;20.17;17.17;;;;;;;19.86;81.17;101480.53;5110706;28;20019;-76
2022/09/12 08:52:04;;;;;;;17.85;15.95;;;;;;;20.00;79.07;101478.09;5113294;28;20038;-87
2022/09/12 08:54:31;;;;;;;16.48;14.80;;;;;;;20.22;79.02;101475.84;5113765;28;20131;-77
2022/09/12 08:57:05;;;;;;;29.40;16.40;;;;;;;20.20;78.22;101472.50;5113539;28;20087;-77
2022/09/12 08:59:37;;;;;;;18.20;14.80;;;;;;;20.26;78.72;101467.34;5114286;28;20111;-77
2022/09/12 09:02:17;;;;;;;15.60;12.95;;;;;;;20.29;76.24;101460.84;5113116;28;20008;-86
2022/09/12 09:04:50;;;;;;;15.13;13.63;;;;;;;20.45;77.37;101466.31;5109743;28;20028;-77
2022/09/12 09:07:47;;;;;;;14.63;13.00;;;;;;;20.60;77.45;101459.31;5111299;28;20084;-76
2022/09/12 09:10:25;;;;;;;14.02;11.82;;;;;;;20.66;75.31;101460.50;5120019;28;20027;-87
2022/09/12 09:12:53;;;;;;;13.38;11.30;;;;;;;20.86;76.12;101453.00;5134750;28;20024;-86
2022/09/12 09:15:48;;;;;;;12.27;10.95;;;;;;;21.10;76.58;101453.00;5119344;28;20523;-87
2022/09/12 09:18:28;;;;;;;12.95;10.20;;;;;;;21.29;73.71;101448.38;5106088;28;20028;-77
2022/09/12 09:20:59;;;;;;;11.65;9.10;;;;;;;21.40;72.24;101451.53;5111297;28;20102;-77
2022/09/12 09:23:33;;;;;;;12.25;9.77;;;;;;;21.47;71.75;101446.31;5108978;28;20162;-77
2022/09/12 09:26:08;;;;;;;11.18;9.43;;;;;;;21.75;71.35;101449.47;5109332;28;20475;-77
2022/09/12 09:28:41;;;;;;;11.20;9.60;;;;;;;21.75;70.16;101452.13;5110612;28;20028;-77
2022/09/12 09:31:20;;;;;;;9.88;8.52;;;;;;;21.96;72.83;101448.88;5103186;28;20047;-77
2022/09/12 09:33:48;;;;;;;10.63;9.57;;;;;;;21.93;69.00;101451.91;5109794;28;20036;-78
2022/09/12 09:36:45;;;;;;;10.75;9.75;;;;;;;21.98;72.32;101444.19;5110615;28;20084;-87
2022/09/12 09:39:35;;;;;;;11.85;9.13;;;;;;;21.85;68.18;101444.72;5110900;28;20073;-86
2022/09/12 09:45:15;;;;;;;11.55;9.05;;;;;;;21.95;67.40;101441.84;5223036;22;20408;-74
2022/09/12 09:47:43;;;;;;;9.63;8.55;;;;;;;22.08;67.33;101428.78;5036607;28;20038;-76
2022/09/12 09:50:15;;;;;;;9.38;7.20;;;;;;;22.12;65.60;101430.94;5041705;28;20087;-74
2022/09/12 09:52:41;;;;;;;8.88;7.55;;;;;;;22.20;65.08;101424.69;5032343;28;20044;-74
2022/09/12 09:55:17;;;;;;;10.85;7.63;;;;;;;22.33;65.92;101422.25;5046763;28;20115;-74
2022/09/12 09:57:51;;;;;;;8.52;6.45;;;;;;;22.50;63.09;101429.22;5048387;28;20036;-82
2022/09/12 10:00:38;;;;;;;7.63;6.75;;;;;;;22.49;66.77;101411.47;5033000;28;20056;-75
2022/09/12 10:03:11;;;;;;;8.35;6.95;;;;;;;22.44;64.96;101411.16;5056540;28;20036;-75
2022/09/12 10:06:00;;;;;;;7.38;6.65;;;;;;;22.75;67.60;101408.41;5049601;28;20024;-75
2022/09/12 10:08:34;;;;;;;7.57;6.88;;;;;;;22.88;63.69;101405.19;5069701;28;20031;-75
2022/09/12 10:11:01;;;;;;;11.00;7.93;;;;;;;22.74;62.23;101403.22;5069390;28;20044;-75
2022/09/12 10:13:30;;;;;;;8.85;7.90;;;;;;;22.64;62.04;101403.47;5065165;28;20039;-74
2022/09/12 10:15:59;;;;;;;8.27;7.32;;;;;;;22.73;62.53;101398.88;5060363;28;20167;-74
2022/09/12 10:18:34;;;;;;;7.97;7.07;;;;;;;22.86;62.12;101390.28;5063814;28;20020;-74
2022/09/12 10:21:00;;;;;;;8.48;7.57;;;;;;;22.81;61.16;101383.59;5068783;28;20020;-74
2022/09/12 10:23:39;;;;;;;8.02;7.22;;;;;;;23.07;62.56;101388.56;5069311;28;20030;-74
2022/09/12 10:26:10;;;;;;;9.32;7.05;;;;;;;22.94;62.48;101382.16;5068663;28;20025;-74
2022/09/12 10:28:42;;;;;;;7.10;5.85;;;;;;;23.10;61.63;101377.44;5067964;28;20434;-74
2022/09/12 10:31:12;;;;;;;10.87;7.40;;;;;;;23.18;59.43;101381.06;5050792;28;20081;-74
2022/09/12 10:33:46;;;;;;;7.10;6.47;;;;;;;23.10;60.09;101372.09;5068479;28;20040;-76
2022/09/12 10:36:13;;;;;;;9.25;7.13;;;;;;;23.15;59.13;101374.22;5049503;28;20464;-74
2022/09/12 10:38:47;;;;;;;12.35;6.10;;;;;;;23.30;60.88;101363.50;5069341;28;20058;-74
2022/09/12 10:41:12;;;;;;;6.35;5.60;;;;;;;23.31;58.21;101360.63;5050117;28;20020;-74
2022/09/12 10:43:40;;;;;;;6.75;5.32;;;;;;;23.29;58.07;101353.78;5050906;28;20503;-75
2022/09/12 10:46:15;;;;;;;7.65;4.75;;;;;;;23.38;60.53;101363.41;5050665;28;20058;-75
2022/09/12 10:48:41;;;;;;;6.38;5.18;;;;;;;23.35;57.04;101356.56;5068428;28;20107;-73
2022/09/12 10:51:25;;;;;;;6.70;4.57;;;;;;;23.44;58.29;101349.25;5063936;28;20037;-74
2022/09/12 10:53:55;;;;;;;5.03;4.45;;;;;;;23.37;57.47;101348.31;5048371;28;20117;-74
2022/09/12 10:56:23;;;;;;;4.95;3.90;;;;;;;23.52;59.11;101337.56;5045575;28;20079;-74
2022/09/12 10:59:03;;;;;;;9.93;4.20;;;;;;;23.54;59.19;101338.22;5061013;28;20090;-75
2022/09/12 11:01:32;;;;;;;4.28;3.70;;;;;;;23.53;58.09;101334.69;5035640;28;20055;-75
2022/09/12 11:04:23;;;;;;;6.82;4.13;;;;;;;23.70;58.18;101333.53;5039083;28;20472;-75
2022/09/12 11:07:40;;;;;;;4.95;3.58;;;;;;;23.91;59.49;101321.97;5049403;28;20431;-81
2022/09/12 11:10:14;;;;;;;4.30;2.92;;;;;;;24.04;54.43;101321.31;5032031;28;20033;-74
2022/09/12 11:12:41;;;;;;;5.15;3.97;;;;;;;23.92;54.65;101329.03;5068413;28;20029;-74
2022/09/12 11:15:33;;;;;;;6.38;3.80;;;;;;;24.08;57.77;101327.97;5067754;28;20507;-74
2022/09/12 11:18:03;;;;;;;7.63;3.17;;;;;;;24.15;54.35;101323.50;5068316;28;20067;-80
2022/09/12 11:20:48;;;;;;;3.15;2.70;;;;;;;24.29;57.81;101324.50;5060383;28;20032;-79
2022/09/12 11:23:45;;;;;;;4.53;2.75;;;;;;;24.31;56.66;101317.06;5046472;28;20032;-75
2022/09/12 11:26:30;;;;;;;4.72;3.25;;;;;;;24.24;55.22;101316.13;5048342;28;20020;-81
2022/09/12 11:29:16;;;;;;;3.25;2.85;;;;;;;24.22;55.43;101310.94;5046684;28;20029;-75